sensor_id;sensor_type;location;lat;lon;timestamp;temperature;humidity
63283;DHT22;49407;51.388;0.048;2022-12-18T00:01:37;-0.70;99.90
63283;DHT22;49407;51.388;0.048;2022-12-18T00:04:06;-0.80;99.90
63283;DHT22;49407;51.388;0.048;2022-12-18T00:06:34;-0.80;99.90
63283;DHT22;49407;51.388;0.048;2022-12-18T00:09:03;-0.90;99.90
63283;DHT22;49407;51.388;0.048;2022-12-18T00:11:31;-0.90;99.90
63283;DHT22;49407;51.388;0.048;2022-12-18T00:13:59;-1.00;99.90
63283;DHT22;49407;51.388;0.048;2022-12-18T00:16:28;-1.00;99.90
63283;DHT22;49407;51.388;0.048;2022-12-18T00:18:57;-1.10;99.90
63283;DHT22;49407;51.388;0.048;2022-12-18T00:21:25;-1.10;99.90
63283;DHT22;49407;51.388;0.048;2022-12-18T00:23:54;-1.00;99.90
63283;DHT22;49407;51.388;0.048;2022-12-18T00:26:24;-1.00;99.90
63283;DHT22;49407;51.388;0.048;2022-12-18T00:29:16;-0.90;99.90
63283;DHT22;49407;51.388;0.048;2022-12-18T00:31:43;-0.90;99.90
63283;DHT22;49407;51.388;0.048;2022-12-18T00:34:12;-0.90;99.90
63283;DHT22;49407;51.388;0.048;2022-12-18T00:36:39;-0.90;99.90
63283;DHT22;49407;51.388;0.048;2022-12-18T00:39:07;-0.90;99.90
63283;DHT22;49407;51.388;0.048;2022-12-18T00:41:35;-0.90;99.90
63283;DHT22;49407;51.388;0.048;2022-12-18T00:44:20;-1.00;99.90
63283;DHT22;49407;51.388;0.048;2022-12-18T00:46:47;-1.00;99.90
63283;DHT22;49407;51.388;0.048;2022-12-18T00:49:17;-1.00;99.90
63283;DHT22;49407;51.388;0.048;2022-12-18T00:51:45;-1.00;99.90
63283;DHT22;49407;51.388;0.048;2022-12-18T00:54:12;-1.00;99.90
63283;DHT22;49407;51.388;0.048;2022-12-18T00:56:40;-1.00;99.90
63283;DHT22;49407;51.388;0.048;2022-12-18T00:59:17;-1.00;99.90
63283;DHT22;49407;51.388;0.048;2022-12-18T01:01:45;-1.10;99.90
63283;DHT22;49407;51.388;0.048;2022-12-18T01:04:13;-1.10;99.90
63283;DHT22;49407;51.388;0.048;2022-12-18T01:06:40;-1.20;99.90
63283;DHT22;49407;51.388;0.048;2022-12-18T01:09:08;-1.20;99.90
63283;DHT22;49407;51.388;0.048;2022-12-18T01:11:36;-1.20;99.90
63283;DHT22;49407;51.388;0.048;2022-12-18T01:14:03;-1.20;99.90
63283;DHT22;49407;51.388;0.048;2022-12-18T01:16:30;-1.10;99.90
63283;DHT22;49407;51.388;0.048;2022-12-18T01:18:59;-1.10;99.90
63283;DHT22;49407;51.388;0.048;2022-12-18T01:21:26;-1.00;99.90
63283;DHT22;49407;51.388;0.048;2022-12-18T01:23:55;-1.00;99.90
63283;DHT22;49407;51.388;0.048;2022-12-18T01:26:23;-1.00;99.90
63283;DHT22;49407;51.388;0.048;2022-12-18T01:29:10;-1.00;99.90
63283;DHT22;49407;51.388;0.048;2022-12-18T01:31:37;-1.00;99.90
63283;DHT22;49407;51.388;0.048;2022-12-18T01:34:05;-1.00;99.90
63283;DHT22;49407;51.388;0.048;2022-12-18T01:36:35;-1.10;99.90
63283;DHT22;49407;51.388;0.048;2022-12-18T01:39:24;-1.10;99.90
63283;DHT22;49407;51.388;0.048;2022-12-18T01:41:51;-1.20;99.90
63283;DHT22;49407;51.388;0.048;2022-12-18T01:47:47;-1.20;99.90
63283;DHT22;49407;51.388;0.048;2022-12-18T01:50:28;-1.20;99.90
63283;DHT22;49407;51.388;0.048;2022-12-18T01:53:17;-1.20;99.90
63283;DHT22;49407;51.388;0.048;2022-12-18T01:55:48;-1.20;99.90
63283;DHT22;49407;51.388;0.048;2022-12-18T01:58:19;-1.10;99.90
63283;DHT22;49407;51.388;0.048;2022-12-18T02:00:49;-1.10;99.90
63283;DHT22;49407;51.388;0.048;2022-12-18T02:03:19;-1.10;99.90
63283;DHT22;49407;51.388;0.048;2022-12-18T02:09:31;-1.10;99.90
63283;DHT22;49407;51.388;0.048;2022-12-18T02:23:06;-1.40;99.90
63283;DHT22;49407;51.388;0.048;2022-12-18T02:28:44;-1.50;99.90
63283;DHT22;49407;51.388;0.048;2022-12-18T02:31:16;-1.50;99.90
63283;DHT22;49407;51.388;0.048;2022-12-18T02:33:46;-1.50;99.90
63283;DHT22;49407;51.388;0.048;2022-12-18T02:36:16;-1.50;99.90
63283;DHT22;49407;51.388;0.048;2022-12-18T02:38:46;-1.60;99.90
63283;DHT22;49407;51.388;0.048;2022-12-18T02:41:16;-1.60;99.90
63283;DHT22;49407;51.388;0.048;2022-12-18T02:43:48;-1.60;99.90
63283;DHT22;49407;51.388;0.048;2022-12-18T02:46:34;-1.50;99.90
63283;DHT22;49407;51.388;0.048;2022-12-18T02:51:51;-1.50;99.90
63283;DHT22;49407;51.388;0.048;2022-12-18T02:56:58;-1.50;99.90
63283;DHT22;49407;51.388;0.048;2022-12-18T02:59:40;-1.60;99.90
63283;DHT22;49407;51.388;0.048;2022-12-18T03:04:56;-1.60;99.90
63283;DHT22;49407;51.388;0.048;2022-12-18T03:07:42;-1.50;99.90
63283;DHT22;49407;51.388;0.048;2022-12-18T03:10:14;-1.50;99.90
63283;DHT22;49407;51.388;0.048;2022-12-18T03:12:49;-1.50;99.90
63283;DHT22;49407;51.388;0.048;2022-12-18T03:15:24;-1.60;99.90
63283;DHT22;49407;51.388;0.048;2022-12-18T03:18:02;-1.50;99.90
63283;DHT22;49407;51.388;0.048;2022-12-18T03:20:32;-1.50;99.90
63283;DHT22;49407;51.388;0.048;2022-12-18T03:23:06;-1.40;99.90
63283;DHT22;49407;51.388;0.048;2022-12-18T03:25:37;-1.40;99.90
63283;DHT22;49407;51.388;0.048;2022-12-18T03:28:09;-1.40;99.90
63283;DHT22;49407;51.388;0.048;2022-12-18T03:30:40;-1.40;99.90
63283;DHT22;49407;51.388;0.048;2022-12-18T03:33:16;-1.40;99.90
63283;DHT22;49407;51.388;0.048;2022-12-18T03:35:48;-1.40;99.90
63283;DHT22;49407;51.388;0.048;2022-12-18T03:38:16;-1.40;99.90
63283;DHT22;49407;51.388;0.048;2022-12-18T03:41:11;-1.40;99.90
63283;DHT22;49407;51.388;0.048;2022-12-18T03:44:23;-1.40;99.90
63283;DHT22;49407;51.388;0.048;2022-12-18T03:46:58;-1.40;99.90
63283;DHT22;49407;51.388;0.048;2022-12-18T03:52:48;-1.40;99.90
63283;DHT22;49407;51.388;0.048;2022-12-18T03:55:18;-1.30;99.90
63283;DHT22;49407;51.388;0.048;2022-12-18T03:57:52;-1.30;99.90
63283;DHT22;49407;51.388;0.048;2022-12-18T04:00:20;-1.30;99.90
63283;DHT22;49407;51.388;0.048;2022-12-18T04:03:00;-1.30;99.90
63283;DHT22;49407;51.388;0.048;2022-12-18T04:05:38;-1.30;99.90
63283;DHT22;49407;51.388;0.048;2022-12-18T04:08:08;-1.20;99.90
63283;DHT22;49407;51.388;0.048;2022-12-18T04:10:40;-1.30;99.90
63283;DHT22;49407;51.388;0.048;2022-12-18T04:13:08;-1.20;99.90
63283;DHT22;49407;51.388;0.048;2022-12-18T04:15:36;-1.20;99.90
63283;DHT22;49407;51.388;0.048;2022-12-18T04:18:12;-1.10;99.90
63283;DHT22;49407;51.388;0.048;2022-12-18T04:20:41;-1.10;99.90
63283;DHT22;49407;51.388;0.048;2022-12-18T04:23:10;-1.10;99.90
63283;DHT22;49407;51.388;0.048;2022-12-18T04:25:38;-1.00;99.90
63283;DHT22;49407;51.388;0.048;2022-12-18T04:30:59;-0.90;99.90
63283;DHT22;49407;51.388;0.048;2022-12-18T04:33:27;-0.90;99.90
63283;DHT22;49407;51.388;0.048;2022-12-18T04:35:54;-0.80;99.90
63283;DHT22;49407;51.388;0.048;2022-12-18T04:41:25;-0.70;99.90
63283;DHT22;49407;51.388;0.048;2022-12-18T04:43:53;-0.60;99.90
63283;DHT22;49407;51.388;0.048;2022-12-18T04:46:20;-0.50;99.90
63283;DHT22;49407;51.388;0.048;2022-12-18T04:48:47;-0.50;99.90
63283;DHT22;49407;51.388;0.048;2022-12-18T04:51:14;-0.40;99.90
63283;DHT22;49407;51.388;0.048;2022-12-18T04:53:40;-0.30;99.90
63283;DHT22;49407;51.388;0.048;2022-12-18T04:56:11;-0.30;99.90
63283;DHT22;49407;51.388;0.048;2022-12-18T04:58:39;-0.20;99.90
63283;DHT22;49407;51.388;0.048;2022-12-18T05:01:07;-0.20;99.90
63283;DHT22;49407;51.388;0.048;2022-12-18T05:03:35;-0.10;99.90
63283;DHT22;49407;51.388;0.048;2022-12-18T05:06:04;-0.10;99.90
63283;DHT22;49407;51.388;0.048;2022-12-18T05:08:33;0.00;99.90
63283;DHT22;49407;51.388;0.048;2022-12-18T05:11:05;0.00;99.90
63283;DHT22;49407;51.388;0.048;2022-12-18T05:13:34;0.00;99.90
63283;DHT22;49407;51.388;0.048;2022-12-18T05:16:02;0.10;99.90
63283;DHT22;49407;51.388;0.048;2022-12-18T05:18:32;0.10;99.90
63283;DHT22;49407;51.388;0.048;2022-12-18T05:20:59;0.10;99.90
63283;DHT22;49407;51.388;0.048;2022-12-18T05:23:26;0.10;99.90
63283;DHT22;49407;51.388;0.048;2022-12-18T05:26:00;0.10;99.90
63283;DHT22;49407;51.388;0.048;2022-12-18T05:28:30;0.10;99.90
63283;DHT22;49407;51.388;0.048;2022-12-18T05:30:59;0.20;99.90
63283;DHT22;49407;51.388;0.048;2022-12-18T05:33:29;0.10;99.90
63283;DHT22;49407;51.388;0.048;2022-12-18T05:35:59;0.20;99.90
63283;DHT22;49407;51.388;0.048;2022-12-18T05:41:17;0.20;99.90
63283;DHT22;49407;51.388;0.048;2022-12-18T05:43:44;0.20;99.90
63283;DHT22;49407;51.388;0.048;2022-12-18T05:46:16;0.30;99.90
63283;DHT22;49407;51.388;0.048;2022-12-18T05:48:47;0.30;99.90
63283;DHT22;49407;51.388;0.048;2022-12-18T05:51:19;0.30;99.90
63283;DHT22;49407;51.388;0.048;2022-12-18T05:53:47;0.30;99.90
63283;DHT22;49407;51.388;0.048;2022-12-18T05:56:17;0.40;99.90
63283;DHT22;49407;51.388;0.048;2022-12-18T05:58:46;0.40;99.90
63283;DHT22;49407;51.388;0.048;2022-12-18T06:01:16;0.40;99.90
63283;DHT22;49407;51.388;0.048;2022-12-18T06:03:44;0.40;99.90
63283;DHT22;49407;51.388;0.048;2022-12-18T06:06:19;0.40;99.90
63283;DHT22;49407;51.388;0.048;2022-12-18T06:09:05;0.40;99.90
63283;DHT22;49407;51.388;0.048;2022-12-18T06:11:38;0.40;99.90
63283;DHT22;49407;51.388;0.048;2022-12-18T06:14:06;0.40;99.90
63283;DHT22;49407;51.388;0.048;2022-12-18T06:16:33;0.40;99.90
63283;DHT22;49407;51.388;0.048;2022-12-18T06:19:02;0.50;99.90
63283;DHT22;49407;51.388;0.048;2022-12-18T06:21:29;0.50;99.90
63283;DHT22;49407;51.388;0.048;2022-12-18T06:23:57;0.50;99.90
63283;DHT22;49407;51.388;0.048;2022-12-18T06:26:24;0.50;99.90
63283;DHT22;49407;51.388;0.048;2022-12-18T06:28:55;0.50;99.90
63283;DHT22;49407;51.388;0.048;2022-12-18T06:31:22;0.50;99.90
63283;DHT22;49407;51.388;0.048;2022-12-18T06:33:50;0.50;99.90
63283;DHT22;49407;51.388;0.048;2022-12-18T06:36:17;0.50;99.90
63283;DHT22;49407;51.388;0.048;2022-12-18T06:39:03;0.50;99.90
63283;DHT22;49407;51.388;0.048;2022-12-18T06:41:31;0.60;99.90
63283;DHT22;49407;51.388;0.048;2022-12-18T06:43:58;0.60;99.90
63283;DHT22;49407;51.388;0.048;2022-12-18T06:46:26;0.60;99.90
63283;DHT22;49407;51.388;0.048;2022-12-18T06:48:53;0.60;99.90
63283;DHT22;49407;51.388;0.048;2022-12-18T06:51:21;0.60;99.90
63283;DHT22;49407;51.388;0.048;2022-12-18T06:53:48;0.60;99.90
63283;DHT22;49407;51.388;0.048;2022-12-18T06:56:16;0.60;99.90
63283;DHT22;49407;51.388;0.048;2022-12-18T06:58:44;0.60;99.90
63283;DHT22;49407;51.388;0.048;2022-12-18T07:01:12;0.70;99.90
63283;DHT22;49407;51.388;0.048;2022-12-18T07:03:40;0.70;99.90
63283;DHT22;49407;51.388;0.048;2022-12-18T07:06:19;0.70;99.90
63283;DHT22;49407;51.388;0.048;2022-12-18T07:08:48;0.70;99.90
63283;DHT22;49407;51.388;0.048;2022-12-18T07:11:16;0.80;99.90
63283;DHT22;49407;51.388;0.048;2022-12-18T07:13:43;0.80;99.90
63283;DHT22;49407;51.388;0.048;2022-12-18T07:16:15;0.80;99.90
63283;DHT22;49407;51.388;0.048;2022-12-18T07:19:10;0.80;99.90
63283;DHT22;49407;51.388;0.048;2022-12-18T07:21:37;0.80;99.90
63283;DHT22;49407;51.388;0.048;2022-12-18T07:24:04;0.90;99.90
63283;DHT22;49407;51.388;0.048;2022-12-18T07:26:31;0.90;99.90
63283;DHT22;49407;51.388;0.048;2022-12-18T07:28:59;0.90;99.90
63283;DHT22;49407;51.388;0.048;2022-12-18T07:31:26;0.90;99.90
63283;DHT22;49407;51.388;0.048;2022-12-18T07:33:54;0.90;99.90
63283;DHT22;49407;51.388;0.048;2022-12-18T07:36:21;0.90;99.90
63283;DHT22;49407;51.388;0.048;2022-12-18T07:38:48;0.90;99.90
63283;DHT22;49407;51.388;0.048;2022-12-18T07:41:19;0.90;99.90
63283;DHT22;49407;51.388;0.048;2022-12-18T07:43:47;1.00;99.90
63283;DHT22;49407;51.388;0.048;2022-12-18T07:46:14;1.00;99.90
63283;DHT22;49407;51.388;0.048;2022-12-18T07:48:43;1.00;99.90
63283;DHT22;49407;51.388;0.048;2022-12-18T07:51:16;1.00;99.90
63283;DHT22;49407;51.388;0.048;2022-12-18T07:53:44;1.00;99.90
63283;DHT22;49407;51.388;0.048;2022-12-18T07:56:12;1.00;99.90
63283;DHT22;49407;51.388;0.048;2022-12-18T07:58:58;1.00;99.90
63283;DHT22;49407;51.388;0.048;2022-12-18T08:01:25;1.00;99.90
63283;DHT22;49407;51.388;0.048;2022-12-18T08:03:53;1.00;99.90
63283;DHT22;49407;51.388;0.048;2022-12-18T08:06:20;1.10;99.90
63283;DHT22;49407;51.388;0.048;2022-12-18T08:08:56;1.10;99.90
63283;DHT22;49407;51.388;0.048;2022-12-18T08:11:25;1.10;99.90
63283;DHT22;49407;51.388;0.048;2022-12-18T08:13:53;1.10;99.90
63283;DHT22;49407;51.388;0.048;2022-12-18T08:16:21;1.10;99.90
63283;DHT22;49407;51.388;0.048;2022-12-18T08:18:51;1.10;99.90
63283;DHT22;49407;51.388;0.048;2022-12-18T08:21:20;1.10;99.90
63283;DHT22;49407;51.388;0.048;2022-12-18T08:23:50;1.20;99.90
63283;DHT22;49407;51.388;0.048;2022-12-18T08:26:18;1.20;99.90
63283;DHT22;49407;51.388;0.048;2022-12-18T08:28:48;1.20;99.90
63283;DHT22;49407;51.388;0.048;2022-12-18T08:31:17;1.30;99.90
63283;DHT22;49407;51.388;0.048;2022-12-18T08:33:44;1.30;99.90
63283;DHT22;49407;51.388;0.048;2022-12-18T08:36:11;1.30;99.90
63283;DHT22;49407;51.388;0.048;2022-12-18T08:38:40;1.30;99.90
63283;DHT22;49407;51.388;0.048;2022-12-18T08:41:10;1.40;99.90
63283;DHT22;49407;51.388;0.048;2022-12-18T08:43:37;1.30;99.90
63283;DHT22;49407;51.388;0.048;2022-12-18T08:46:24;1.40;99.90
63283;DHT22;49407;51.388;0.048;2022-12-18T08:48:54;1.40;99.90
63283;DHT22;49407;51.388;0.048;2022-12-18T08:51:22;1.40;99.90
63283;DHT22;49407;51.388;0.048;2022-12-18T08:53:49;1.50;99.90
63283;DHT22;49407;51.388;0.048;2022-12-18T08:56:16;1.50;99.90
63283;DHT22;49407;51.388;0.048;2022-12-18T08:59:04;1.50;99.90
63283;DHT22;49407;51.388;0.048;2022-12-18T09:01:31;1.50;99.90
63283;DHT22;49407;51.388;0.048;2022-12-18T09:03:59;1.50;99.90
63283;DHT22;49407;51.388;0.048;2022-12-18T09:06:26;1.60;99.90
63283;DHT22;49407;51.388;0.048;2022-12-18T09:08:58;1.60;99.90
63283;DHT22;49407;51.388;0.048;2022-12-18T09:11:26;1.60;99.90
63283;DHT22;49407;51.388;0.048;2022-12-18T09:13:55;1.60;99.90
63283;DHT22;49407;51.388;0.048;2022-12-18T09:16:23;1.60;99.90
63283;DHT22;49407;51.388;0.048;2022-12-18T09:18:58;1.70;99.90
63283;DHT22;49407;51.388;0.048;2022-12-18T09:21:34;1.70;99.90
63283;DHT22;49407;51.388;0.048;2022-12-18T09:24:03;1.70;99.90
63283;DHT22;49407;51.388;0.048;2022-12-18T09:26:35;1.70;99.90
63283;DHT22;49407;51.388;0.048;2022-12-18T09:29:03;1.70;99.90
63283;DHT22;49407;51.388;0.048;2022-12-18T09:31:30;1.70;99.90
63283;DHT22;49407;51.388;0.048;2022-12-18T09:34:00;1.70;99.90
63283;DHT22;49407;51.388;0.048;2022-12-18T09:36:31;1.80;99.90
63283;DHT22;49407;51.388;0.048;2022-12-18T09:39:00;1.80;99.90
63283;DHT22;49407;51.388;0.048;2022-12-18T09:41:45;1.80;99.90
63283;DHT22;49407;51.388;0.048;2022-12-18T09:46:55;1.80;99.90
63283;DHT22;49407;51.388;0.048;2022-12-18T09:49:29;1.90;99.90
63283;DHT22;49407;51.388;0.048;2022-12-18T09:52:05;1.90;99.90
63283;DHT22;49407;51.388;0.048;2022-12-18T09:54:40;1.90;99.90
63283;DHT22;49407;51.388;0.048;2022-12-18T09:57:13;2.00;99.90
63283;DHT22;49407;51.388;0.048;2022-12-18T09:59:45;2.00;99.90
63283;DHT22;49407;51.388;0.048;2022-12-18T10:02:24;2.00;99.90
63283;DHT22;49407;51.388;0.048;2022-12-18T10:05:12;2.10;99.90
63283;DHT22;49407;51.388;0.048;2022-12-18T10:10:40;2.10;99.90
63283;DHT22;49407;51.388;0.048;2022-12-18T10:16:15;2.20;99.90
63283;DHT22;49407;51.388;0.048;2022-12-18T10:21:43;2.20;99.90
63283;DHT22;49407;51.388;0.048;2022-12-18T10:24:26;2.20;99.90
63283;DHT22;49407;51.388;0.048;2022-12-18T10:27:17;2.30;99.90
63283;DHT22;49407;51.388;0.048;2022-12-18T10:29:45;2.30;99.90
63283;DHT22;49407;51.388;0.048;2022-12-18T10:32:19;2.30;99.90
63283;DHT22;49407;51.388;0.048;2022-12-18T10:34:47;2.30;99.90
63283;DHT22;49407;51.388;0.048;2022-12-18T10:37:19;2.40;99.90
63283;DHT22;49407;51.388;0.048;2022-12-18T10:40:09;2.40;99.90
63283;DHT22;49407;51.388;0.048;2022-12-18T10:42:36;2.40;99.90
63283;DHT22;49407;51.388;0.048;2022-12-18T10:45:14;2.50;99.90
63283;DHT22;49407;51.388;0.048;2022-12-18T10:50:36;2.60;99.90
63283;DHT22;49407;51.388;0.048;2022-12-18T10:53:26;2.60;99.90
63283;DHT22;49407;51.388;0.048;2022-12-18T10:55:56;2.60;99.90
63283;DHT22;49407;51.388;0.048;2022-12-18T10:58:30;2.70;99.90
63283;DHT22;49407;51.388;0.048;2022-12-18T11:01:15;2.70;99.90
63283;DHT22;49407;51.388;0.048;2022-12-18T11:03:45;2.70;99.90
63283;DHT22;49407;51.388;0.048;2022-12-18T11:06:15;2.80;99.90
63283;DHT22;49407;51.388;0.048;2022-12-18T11:08:56;2.80;99.90
63283;DHT22;49407;51.388;0.048;2022-12-18T11:11:24;2.80;99.90
63283;DHT22;49407;51.388;0.048;2022-12-18T11:14:06;2.80;99.90
63283;DHT22;49407;51.388;0.048;2022-12-18T11:16:45;2.80;99.90
63283;DHT22;49407;51.388;0.048;2022-12-18T11:19:35;2.90;99.90
63283;DHT22;49407;51.388;0.048;2022-12-18T11:22:23;2.90;99.90
63283;DHT22;49407;51.388;0.048;2022-12-18T11:31:23;2.90;99.90
63283;DHT22;49407;51.388;0.048;2022-12-18T11:33:58;2.90;99.90
63283;DHT22;49407;51.388;0.048;2022-12-18T11:36:46;2.90;99.90
63283;DHT22;49407;51.388;0.048;2022-12-18T11:39:44;3.00;99.90
63283;DHT22;49407;51.388;0.048;2022-12-18T11:42:20;2.90;99.90
63283;DHT22;49407;51.388;0.048;2022-12-18T11:47:59;2.90;99.90
63283;DHT22;49407;51.388;0.048;2022-12-18T11:50:41;2.90;99.90
63283;DHT22;49407;51.388;0.048;2022-12-18T11:53:12;2.80;99.90
63283;DHT22;49407;51.388;0.048;2022-12-18T11:56:00;2.90;99.90
63283;DHT22;49407;51.388;0.048;2022-12-18T11:58:48;2.90;99.90
63283;DHT22;49407;51.388;0.048;2022-12-18T12:01:45;2.90;99.90
63283;DHT22;49407;51.388;0.048;2022-12-18T12:04:43;2.90;99.90
63283;DHT22;49407;51.388;0.048;2022-12-18T12:13:13;2.90;99.90
63283;DHT22;49407;51.388;0.048;2022-12-18T12:19:19;2.80;99.90
63283;DHT22;49407;51.388;0.048;2022-12-18T12:21:36;2.90;99.90
63283;DHT22;49407;51.388;0.048;2022-12-18T12:27:38;2.80;99.90
63283;DHT22;49407;51.388;0.048;2022-12-18T12:30:20;2.80;99.90
63283;DHT22;49407;51.388;0.048;2022-12-18T12:36:02;2.90;99.90
63283;DHT22;49407;51.388;0.048;2022-12-18T12:38:41;2.90;99.90
63283;DHT22;49407;51.388;0.048;2022-12-18T12:41:21;2.90;99.90
63283;DHT22;49407;51.388;0.048;2022-12-18T12:44:16;2.90;99.90
63283;DHT22;49407;51.388;0.048;2022-12-18T12:46:46;2.90;99.90
63283;DHT22;49407;51.388;0.048;2022-12-18T12:54:53;2.90;99.90
63283;DHT22;49407;51.388;0.048;2022-12-18T12:57:47;2.90;99.90
63283;DHT22;49407;51.388;0.048;2022-12-18T13:00:18;3.00;99.90
63283;DHT22;49407;51.388;0.048;2022-12-18T13:05:53;3.00;99.90
63283;DHT22;49407;51.388;0.048;2022-12-18T13:08:27;3.00;99.90
63283;DHT22;49407;51.388;0.048;2022-12-18T13:10:59;3.00;99.90
63283;DHT22;49407;51.388;0.048;2022-12-18T13:13:53;3.00;99.90
63283;DHT22;49407;51.388;0.048;2022-12-18T13:16:23;3.00;99.90
63283;DHT22;49407;51.388;0.048;2022-12-18T13:18:57;3.00;99.90
63283;DHT22;49407;51.388;0.048;2022-12-18T13:21:33;3.00;99.90
63283;DHT22;49407;51.388;0.048;2022-12-18T13:24:27;3.00;99.90
63283;DHT22;49407;51.388;0.048;2022-12-18T13:26:57;3.00;99.90
63283;DHT22;49407;51.388;0.048;2022-12-18T13:29:45;3.00;99.90
63283;DHT22;49407;51.388;0.048;2022-12-18T13:32:21;3.00;99.90
63283;DHT22;49407;51.388;0.048;2022-12-18T13:37:53;3.00;99.90
63283;DHT22;49407;51.388;0.048;2022-12-18T13:51:22;3.00;99.90
63283;DHT22;49407;51.388;0.048;2022-12-18T13:53:52;3.00;99.90
63283;DHT22;49407;51.388;0.048;2022-12-18T13:56:26;3.00;99.90
63283;DHT22;49407;51.388;0.048;2022-12-18T14:04:33;3.10;99.90
63283;DHT22;49407;51.388;0.048;2022-12-18T14:07:04;3.10;99.90
63283;DHT22;49407;51.388;0.048;2022-12-18T14:09:37;3.10;99.90
63283;DHT22;49407;51.388;0.048;2022-12-18T14:12:06;3.10;99.90
63283;DHT22;49407;51.388;0.048;2022-12-18T14:15:00;3.10;99.90
63283;DHT22;49407;51.388;0.048;2022-12-18T14:17:27;3.10;99.90
63283;DHT22;49407;51.388;0.048;2022-12-18T14:19:54;3.10;99.90
63283;DHT22;49407;51.388;0.048;2022-12-18T14:22:25;3.10;99.90
63283;DHT22;49407;51.388;0.048;2022-12-18T14:25:28;3.10;99.90
63283;DHT22;49407;51.388;0.048;2022-12-18T14:28:16;3.20;99.90
63283;DHT22;49407;51.388;0.048;2022-12-18T14:30:45;3.20;99.90
63283;DHT22;49407;51.388;0.048;2022-12-18T14:36:01;3.20;99.90
63283;DHT22;49407;51.388;0.048;2022-12-18T14:38:32;3.20;99.90
63283;DHT22;49407;51.388;0.048;2022-12-18T14:41:19;3.20;99.90
63283;DHT22;49407;51.388;0.048;2022-12-18T14:44:05;3.30;99.90
63283;DHT22;49407;51.388;0.048;2022-12-18T14:46:39;3.30;99.90
63283;DHT22;49407;51.388;0.048;2022-12-18T14:52:23;3.40;99.90
63283;DHT22;49407;51.388;0.048;2022-12-18T14:54:52;3.40;99.90
63283;DHT22;49407;51.388;0.048;2022-12-18T14:57:23;3.40;99.90
63283;DHT22;49407;51.388;0.048;2022-12-18T14:59:51;3.40;99.90
63283;DHT22;49407;51.388;0.048;2022-12-18T15:02:26;3.40;99.90
63283;DHT22;49407;51.388;0.048;2022-12-18T15:05:17;3.40;99.90
63283;DHT22;49407;51.388;0.048;2022-12-18T15:07:48;3.50;99.90
63283;DHT22;49407;51.388;0.048;2022-12-18T15:13:06;3.50;99.90
63283;DHT22;49407;51.388;0.048;2022-12-18T15:23:30;3.60;99.90
63283;DHT22;49407;51.388;0.048;2022-12-18T15:26:03;3.60;99.90
63283;DHT22;49407;51.388;0.048;2022-12-18T15:28:38;3.70;99.90
63283;DHT22;49407;51.388;0.048;2022-12-18T15:33:44;3.70;99.90
63283;DHT22;49407;51.388;0.048;2022-12-18T15:36:14;3.70;99.90
63283;DHT22;49407;51.388;0.048;2022-12-18T15:38:47;3.80;99.90
63283;DHT22;49407;51.388;0.048;2022-12-18T15:41:16;3.90;99.90
63283;DHT22;49407;51.388;0.048;2022-12-18T15:43:52;3.90;99.90
63283;DHT22;49407;51.388;0.048;2022-12-18T15:46:22;3.90;99.90
63283;DHT22;49407;51.388;0.048;2022-12-18T15:48:54;4.00;99.90
63283;DHT22;49407;51.388;0.048;2022-12-18T15:51:33;4.00;99.90
63283;DHT22;49407;51.388;0.048;2022-12-18T15:54:03;4.10;99.90
63283;DHT22;49407;51.388;0.048;2022-12-18T15:56:31;4.10;99.90
63283;DHT22;49407;51.388;0.048;2022-12-18T15:59:20;4.10;99.90
63283;DHT22;49407;51.388;0.048;2022-12-18T16:01:49;4.10;99.90
63283;DHT22;49407;51.388;0.048;2022-12-18T16:04:20;4.20;99.90
63283;DHT22;49407;51.388;0.048;2022-12-18T16:06:47;4.20;99.90
63283;DHT22;49407;51.388;0.048;2022-12-18T16:09:35;4.30;99.90
63283;DHT22;49407;51.388;0.048;2022-12-18T16:12:02;4.30;99.90
63283;DHT22;49407;51.388;0.048;2022-12-18T16:14:30;4.40;99.90
63283;DHT22;49407;51.388;0.048;2022-12-18T16:17:03;4.50;99.90
63283;DHT22;49407;51.388;0.048;2022-12-18T16:19:30;4.50;99.90
63283;DHT22;49407;51.388;0.048;2022-12-18T16:21:58;4.50;99.90
63283;DHT22;49407;51.388;0.048;2022-12-18T16:24:28;4.60;99.90
63283;DHT22;49407;51.388;0.048;2022-12-18T16:26:57;4.60;99.90
63283;DHT22;49407;51.388;0.048;2022-12-18T16:29:28;4.70;99.90
63283;DHT22;49407;51.388;0.048;2022-12-18T16:31:56;4.80;99.90
63283;DHT22;49407;51.388;0.048;2022-12-18T16:34:29;4.80;99.90
63283;DHT22;49407;51.388;0.048;2022-12-18T16:37:04;4.80;99.90
63283;DHT22;49407;51.388;0.048;2022-12-18T16:39:33;4.90;99.90
63283;DHT22;49407;51.388;0.048;2022-12-18T16:42:03;5.00;99.90
63283;DHT22;49407;51.388;0.048;2022-12-18T16:44:33;5.00;99.90
63283;DHT22;49407;51.388;0.048;2022-12-18T16:47:00;5.10;99.90
63283;DHT22;49407;51.388;0.048;2022-12-18T16:49:29;5.10;99.90
63283;DHT22;49407;51.388;0.048;2022-12-18T16:51:56;5.20;99.90
63283;DHT22;49407;51.388;0.048;2022-12-18T16:54:23;5.20;99.90
63283;DHT22;49407;51.388;0.048;2022-12-18T16:56:51;5.20;99.90
63283;DHT22;49407;51.388;0.048;2022-12-18T16:59:20;5.30;99.90
63283;DHT22;49407;51.388;0.048;2022-12-18T17:01:47;5.30;99.90
63283;DHT22;49407;51.388;0.048;2022-12-18T17:04:16;5.30;99.90
63283;DHT22;49407;51.388;0.048;2022-12-18T17:06:44;5.40;99.90
63283;DHT22;49407;51.388;0.048;2022-12-18T17:09:14;5.50;99.90
63283;DHT22;49407;51.388;0.048;2022-12-18T17:11:44;5.50;99.90
63283;DHT22;49407;51.388;0.048;2022-12-18T17:14:17;5.50;99.90
63283;DHT22;49407;51.388;0.048;2022-12-18T17:16:45;5.60;99.90
63283;DHT22;49407;51.388;0.048;2022-12-18T17:19:13;5.60;99.90
63283;DHT22;49407;51.388;0.048;2022-12-18T17:21:44;5.70;99.90
63283;DHT22;49407;51.388;0.048;2022-12-18T17:24:14;5.70;99.90
63283;DHT22;49407;51.388;0.048;2022-12-18T17:26:41;5.70;99.90
63283;DHT22;49407;51.388;0.048;2022-12-18T17:29:12;5.70;99.90
63283;DHT22;49407;51.388;0.048;2022-12-18T17:31:39;5.80;99.90
63283;DHT22;49407;51.388;0.048;2022-12-18T17:34:08;5.80;99.90
63283;DHT22;49407;51.388;0.048;2022-12-18T17:36:36;5.80;99.90
63283;DHT22;49407;51.388;0.048;2022-12-18T17:39:04;5.90;99.90
63283;DHT22;49407;51.388;0.048;2022-12-18T17:41:32;5.90;99.90
63283;DHT22;49407;51.388;0.048;2022-12-18T17:44:01;6.00;99.90
63283;DHT22;49407;51.388;0.048;2022-12-18T17:46:30;6.00;99.90
63283;DHT22;49407;51.388;0.048;2022-12-18T17:48:59;6.00;99.90
63283;DHT22;49407;51.388;0.048;2022-12-18T17:51:27;6.00;99.90
63283;DHT22;49407;51.388;0.048;2022-12-18T17:53:54;6.10;99.90
63283;DHT22;49407;51.388;0.048;2022-12-18T17:56:22;6.10;99.90
63283;DHT22;49407;51.388;0.048;2022-12-18T17:58:50;6.10;99.90
63283;DHT22;49407;51.388;0.048;2022-12-18T18:01:20;6.10;99.90
63283;DHT22;49407;51.388;0.048;2022-12-18T18:03:48;6.10;99.90
63283;DHT22;49407;51.388;0.048;2022-12-18T18:06:19;6.10;99.90
63283;DHT22;49407;51.388;0.048;2022-12-18T18:08:46;6.10;99.90
63283;DHT22;49407;51.388;0.048;2022-12-18T18:11:16;6.10;99.90
63283;DHT22;49407;51.388;0.048;2022-12-18T18:14:12;6.20;99.90
63283;DHT22;49407;51.388;0.048;2022-12-18T18:16:44;6.20;99.90
63283;DHT22;49407;51.388;0.048;2022-12-18T18:19:16;6.20;99.90
63283;DHT22;49407;51.388;0.048;2022-12-18T18:21:44;6.20;99.90
63283;DHT22;49407;51.388;0.048;2022-12-18T18:24:14;6.20;99.90